Terminal Aerodrome Forecast
Issued by NWS Atlanta, GA

Home | Current Version | Previous Version | Text Only | Print | Product List | Glossary On
Versions: 1 2 3 4 5 6 7 8 9 10 11 12 13 14 15
000
FTUS42 KFFC 290208 AAA
TAFMCN
TAF AMD
KMCN 290208Z 2902/2924 VRB03KT 2SM -RA BR OVC020
     FM290300 00000KT 2SM -RA BR OVC005
     FM291700 36003KT P6SM OVC006
     FM291800 35003KT P6SM BKN014
     FM292100 30005KT P6SM BKN025=

USA.gov is the U.S. government's official web portal to all federal, state and local government web resources and services.